Time;durP1;ratioP1;P1;durP2;ratioP2;P2;SDS_P1;SDS_P2;PMS_P1;PMS_P2;Temp;Humidity;BMP_temperature;BMP_pressure;BME280_temperature;BME280_humidity;BME280_pressure;Samples;Min_cycle;Max_cycle;Signal;HPM_P1;HPM_P2
2023/08/19 00:00:55;;;;;;;26.40;23.70;;;;;;;;;;5041021;28;20025;-72
2023/08/19 00:03:21;;;;;;;25.17;22.58;;;;;;;;;;5037054;28;20035;-71
2023/08/19 00:05:47;;;;;;;25.20;22.35;;;;;;;;;;5045332;28;20037;-72
2023/08/19 00:08:13;;;;;;;27.77;22.77;;;;;;;;;;5048136;28;20033;-72
2023/08/19 00:10:40;;;;;;;24.48;21.77;;;;;;;;;;5047789;28;20489;-73
2023/08/19 00:13:06;;;;;;;27.25;22.30;;;;;;;;;;5046202;28;20053;-72
2023/08/19 00:15:32;;;;;;;25.75;22.98;;;;;;;;;;5042727;28;20033;-72
2023/08/19 00:18:00;;;;;;;25.10;22.48;;;;;;;;;;5045138;28;20122;-72
2023/08/19 00:20:28;;;;;;;24.90;22.30;;;;;;;;;;5045154;28;20040;-72
2023/08/19 00:22:55;;;;;;;27.50;23.98;;;;;;;;;;5044825;28;20033;-72
2023/08/19 00:25:21;;;;;;;26.95;23.98;;;;;;;;;;5055654;28;20131;-72
2023/08/19 00:27:47;;;;;;;25.02;22.65;;;;;;;;;;5048610;28;20585;-72
2023/08/19 00:30:13;;;;;;;30.92;23.17;;;;;;;;;;5043434;28;20653;-72
2023/08/19 00:32:40;;;;;;;27.15;24.33;;;;;;;;;;5046675;28;20394;-72
2023/08/19 00:35:06;;;;;;;25.63;22.80;;;;;;;;;;5045271;28;20656;-72
2023/08/19 00:37:34;;;;;;;26.25;21.67;;;;;;;;;;5046461;28;20043;-72
2023/08/19 00:40:00;;;;;;;27.10;23.98;;;;;;;;;;5047147;28;20026;-72
2023/08/19 00:42:26;;;;;;;29.02;24.70;;;;;;;;;;5045458;28;20108;-72
2023/08/19 00:44:52;;;;;;;27.10;24.23;;;;;;;;;;5046015;28;20037;-72
2023/08/19 00:47:18;;;;;;;27.50;22.55;;;;;;;;;;5046576;28;20048;-72
2023/08/19 00:49:44;;;;;;;34.20;24.88;;;;;;;;;;5044108;28;20534;-72
2023/08/19 00:52:11;;;;;;;28.98;24.83;;;;;;;;;;5046858;28;20037;-72
2023/08/19 00:54:37;;;;;;;29.40;23.95;;;;;;;;;;5047642;28;20025;-72
2023/08/19 00:57:03;;;;;;;27.73;23.55;;;;;;;;;;5046046;28;20025;-72
2023/08/19 00:59:29;;;;;;;25.55;22.85;;;;;;;;;;5045729;28;20032;-72
2023/08/19 01:01:55;;;;;;;28.08;21.98;;;;;;;;;;5046158;28;20055;-72
2023/08/19 01:04:21;;;;;;;27.85;22.73;;;;;;;;;;5046105;28;20047;-72
2023/08/19 01:07:05;;;;;;;30.35;24.73;;;;;;;;;;5044455;28;20087;-73
2023/08/19 01:09:38;;;;;;;26.00;23.25;;;;;;;;;;5047877;28;20099;-72
2023/08/19 01:12:15;;;;;;;28.02;23.90;;;;;;;;;;5050561;28;20033;-72
2023/08/19 01:14:44;;;;;;;26.63;23.00;;;;;;;;;;5050507;28;20047;-72
2023/08/19 01:17:14;;;;;;;28.90;25.88;;;;;;;;;;5047445;28;20021;-72
2023/08/19 01:19:41;;;;;;;28.35;24.73;;;;;;;;;;5048417;28;20099;-71
2023/08/19 01:22:09;;;;;;;27.13;23.48;;;;;;;;;;5049688;28;20083;-71
2023/08/19 01:24:36;;;;;;;26.25;23.52;;;;;;;;;;5048962;28;20021;-72
2023/08/19 01:27:03;;;;;;;26.50;23.85;;;;;;;;;;5050760;28;20029;-73
2023/08/19 01:29:29;;;;;;;29.73;23.95;;;;;;;;;;5049646;28;20041;-73
2023/08/19 01:31:55;;;;;;;29.98;23.27;;;;;;;;;;5042680;28;20040;-73
2023/08/19 01:34:22;;;;;;;27.25;24.50;;;;;;;;;;5035067;28;20041;-73
2023/08/19 01:36:50;;;;;;;32.63;25.25;;;;;;;;;;5050547;28;20037;-73
2023/08/19 01:39:18;;;;;;;31.02;24.33;;;;;;;;;;5049701;28;20025;-73
2023/08/19 01:41:44;;;;;;;24.20;21.65;;;;;;;;;;5049969;28;20138;-73
2023/08/19 01:44:10;;;;;;;28.13;24.45;;;;;;;;;;5047823;28;20033;-73
2023/08/19 01:46:36;;;;;;;25.85;22.67;;;;;;;;;;5046046;28;20041;-73
2023/08/19 01:49:02;;;;;;;33.65;23.58;;;;;;;;;;5050711;28;20502;-73
2023/08/19 01:51:30;;;;;;;25.48;22.77;;;;;;;;;;5047510;28;20506;-71
2023/08/19 01:53:56;;;;;;;25.98;23.17;;;;;;;;;;5064335;28;20390;-70
2023/08/19 01:56:22;;;;;;;28.45;24.08;;;;;;;;;;5049011;28;20037;-73
2023/08/19 01:58:48;;;;;;;25.38;22.67;;;;;;;;;;5050515;28;20490;-73
2023/08/19 02:01:14;;;;;;;31.17;24.45;;;;;;;;;;5048030;28;20099;-73
2023/08/19 02:03:40;;;;;;;26.90;21.60;;;;;;;;;;5053182;28;20688;-73
2023/08/19 02:06:07;;;;;;;28.92;23.98;;;;;;;;;;5047489;28;20029;-72
2023/08/19 02:08:33;;;;;;;26.83;24.05;;;;;;;;;;5050051;28;20040;-73
2023/08/19 02:10:59;;;;;;;25.92;22.13;;;;;;;;;;5047496;28;20028;-76
2023/08/19 02:13:25;;;;;;;25.15;22.50;;;;;;;;;;5040495;28;20123;-74
2023/08/19 02:15:51;;;;;;;26.95;22.92;;;;;;;;;;5040005;28;20052;-73
2023/08/19 02:18:18;;;;;;;24.40;21.45;;;;;;;;;;5046533;28;20137;-74
2023/08/19 02:20:47;;;;;;;27.50;21.05;;;;;;;;;;5042030;28;20164;-73
2023/08/19 02:23:13;;;;;;;31.25;27.63;;;;;;;;;;5043232;28;20025;-73
2023/08/19 02:25:39;;;;;;;90.35;71.20;;;;;;;;;;5035256;28;22116;-74
2023/08/19 02:28:05;;;;;;;28.40;25.17;;;;;;;;;;5066244;28;20040;-72
2023/08/19 02:30:34;;;;;;;29.65;24.60;;;;;;;;;;5066318;28;20032;-72
2023/08/19 02:33:07;;;;;;;27.48;24.30;;;;;;;;;;5048829;28;20029;-72
2023/08/19 02:35:33;;;;;;;28.67;23.33;;;;;;;;;;5047632;28;20060;-72
2023/08/19 02:37:59;;;;;;;27.30;23.13;;;;;;;;;;5043209;28;20056;-72
2023/08/19 02:40:25;;;;;;;24.67;22.05;;;;;;;;;;5031345;28;20149;-71
2023/08/19 02:42:51;;;;;;;24.60;22.00;;;;;;;;;;5048930;28;20044;-71
2023/08/19 02:45:17;;;;;;;27.52;24.17;;;;;;;;;;5047605;28;20390;-72
2023/08/19 02:47:43;;;;;;;23.70;21.30;;;;;;;;;;5048430;28;20078;-72
2023/08/19 02:50:09;;;;;;;24.35;21.15;;;;;;;;;;5045930;28;20044;-79
2023/08/19 02:52:35;;;;;;;31.00;26.73;;;;;;;;;;5046575;28;20037;-77
2023/08/19 02:55:01;;;;;;;108.70;86.07;;;;;;;;;;5045977;28;20517;-77
2023/08/19 02:57:27;;;;;;;30.90;27.40;;;;;;;;;;5065736;28;20033;-77
2023/08/19 02:59:55;;;;;;;25.42;22.85;;;;;;;;;;5050902;28;20482;-79
2023/08/19 03:02:21;;;;;;;25.00;20.00;;;;;;;;;;5047021;28;20482;-78
2023/08/19 03:04:47;;;;;;;24.58;21.42;;;;;;;;;;5049014;28;20120;-78
2023/08/19 03:07:13;;;;;;;23.33;20.90;;;;;;;;;;5048391;28;20051;-77
2023/08/19 03:09:39;;;;;;;23.58;20.75;;;;;;;;;;5048168;28;20883;-71
2023/08/19 03:12:05;;;;;;;25.73;22.23;;;;;;;;;;5044270;28;20609;-72
2023/08/19 03:14:31;;;;;;;24.10;21.55;;;;;;;;;;5035880;28;20055;-72
2023/08/19 03:16:57;;;;;;;36.35;22.98;;;;;;;;;;5035728;28;20529;-72
2023/08/19 03:19:23;;;;;;;25.83;20.65;;;;;;;;;;5039388;28;20053;-73
2023/08/19 03:21:49;;;;;;;25.77;21.38;;;;;;;;;;5038098;28;20036;-73
2023/08/19 03:24:15;;;;;;;42.28;37.75;;;;;;;;;;5045514;28;20041;-70
2023/08/19 03:26:41;;;;;;;28.55;22.52;;;;;;;;;;5048216;28;20589;-70
2023/08/19 03:29:07;;;;;;;25.58;22.52;;;;;;;;;;5058739;28;20029;-71
2023/08/19 03:31:33;;;;;;;28.13;21.48;;;;;;;;;;5047825;28;20028;-72
2023/08/19 03:33:59;;;;;;;25.73;20.40;;;;;;;;;;5037459;28;20539;-73
2023/08/19 03:36:25;;;;;;;27.67;19.88;;;;;;;;;;5066642;28;20024;-71
2023/08/19 03:38:51;;;;;;;22.17;19.23;;;;;;;;;;5063178;28;20044;-71
2023/08/19 03:41:17;;;;;;;24.27;20.00;;;;;;;;;;5048333;28;20029;-71
2023/08/19 03:43:43;;;;;;;24.38;20.75;;;;;;;;;;5044853;28;20048;-72
2023/08/19 03:46:10;;;;;;;22.00;19.55;;;;;;;;;;5048617;28;20041;-71
2023/08/19 03:48:36;;;;;;;23.08;20.48;;;;;;;;;;5044520;28;20645;-71
2023/08/19 03:51:02;;;;;;;21.65;19.20;;;;;;;;;;5052271;28;20047;-71
2023/08/19 03:53:28;;;;;;;21.75;19.48;;;;;;;;;;5046156;28;20037;-72
2023/08/19 03:55:54;;;;;;;22.35;19.15;;;;;;;;;;5048300;28;20081;-71
2023/08/19 03:58:20;;;;;;;20.80;18.60;;;;;;;;;;5048875;28;20491;-71
2023/08/19 04:00:47;;;;;;;23.15;20.65;;;;;;;;;;5048649;28;20176;-71
2023/08/19 04:03:13;;;;;;;23.02;19.05;;;;;;;;;;5046400;28;20272;-71
2023/08/19 04:05:39;;;;;;;21.35;19.20;;;;;;;;;;5054206;28;20094;-71
2023/08/19 04:08:05;;;;;;;22.00;18.70;;;;;;;;;;5047165;28;20045;-71
2023/08/19 04:10:31;;;;;;;25.80;19.83;;;;;;;;;;5048560;28;20056;-71
2023/08/19 04:12:57;;;;;;;21.60;18.67;;;;;;;;;;5047465;28;20653;-71
2023/08/19 04:15:23;;;;;;;21.95;19.65;;;;;;;;;;5045467;28;20120;-71
2023/08/19 04:17:49;;;;;;;23.17;20.75;;;;;;;;;;5046880;28;20109;-71
2023/08/19 04:20:15;;;;;;;21.40;19.15;;;;;;;;;;5048830;28;20152;-71
2023/08/19 04:22:41;;;;;;;21.38;19.17;;;;;;;;;;5047244;28;20028;-71
2023/08/19 04:25:08;;;;;;;22.85;19.77;;;;;;;;;;5044671;28;20529;-71
2023/08/19 04:27:34;;;;;;;23.10;19.27;;;;;;;;;;5046640;28;20033;-71
2023/08/19 04:30:00;;;;;;;26.13;19.73;;;;;;;;;;5048630;28;20137;-71
2023/08/19 04:32:26;;;;;;;23.17;20.00;;;;;;;;;;5028979;28;20546;-71
2023/08/19 04:34:53;;;;;;;23.77;19.73;;;;;;;;;;5046329;28;20489;-71
2023/08/19 04:37:19;;;;;;;23.92;19.27;;;;;;;;;;5046389;28;20040;-71
2023/08/19 04:39:45;;;;;;;25.80;19.45;;;;;;;;;;5045922;28;20049;-71
2023/08/19 04:42:11;;;;;;;21.70;18.48;;;;;;;;;;5033708;28;20426;-71
2023/08/19 04:44:37;;;;;;;23.42;19.15;;;;;;;;;;5043008;28;20050;-71
2023/08/19 04:47:04;;;;;;;19.85;17.75;;;;;;;;;;5051791;28;20041;-72
2023/08/19 04:49:30;;;;;;;25.15;16.98;;;;;;;;;;5049299;28;20391;-72
2023/08/19 04:51:56;;;;;;;19.60;17.35;;;;;;;;;;5052209;28;20079;-72
2023/08/19 04:54:22;;;;;;;18.63;16.63;;;;;;;;;;5049378;28;20040;-72
2023/08/19 04:56:48;;;;;;;22.85;16.80;;;;;;;;;;5051032;28;20463;-72
2023/08/19 04:59:14;;;;;;;20.98;17.50;;;;;;;;;;5049582;28;20108;-72
2023/08/19 05:01:40;;;;;;;18.70;16.77;;;;;;;;;;5050598;28;20033;-72
2023/08/19 05:04:06;;;;;;;18.10;16.20;;;;;;;;;;5049231;28;20512;-71
2023/08/19 05:06:32;;;;;;;18.35;15.95;;;;;;;;;;5049174;28;20033;-71
2023/08/19 05:08:58;;;;;;;18.75;16.77;;;;;;;;;;5051293;28;20433;-72
2023/08/19 05:11:24;;;;;;;20.48;16.33;;;;;;;;;;5049551;28;20033;-72
2023/08/19 05:13:50;;;;;;;17.15;15.35;;;;;;;;;;5051934;28;20044;-72
2023/08/19 05:16:16;;;;;;;17.55;15.45;;;;;;;;;;5049870;28;20037;-71
2023/08/19 05:18:42;;;;;;;22.17;16.33;;;;;;;;;;5048531;28;20049;-71
2023/08/19 05:21:08;;;;;;;20.10;15.75;;;;;;;;;;5049566;28;20025;-71
2023/08/19 05:23:34;;;;;;;21.02;16.33;;;;;;;;;;5063608;28;20044;-71
2023/08/19 05:26:00;;;;;;;17.80;14.75;;;;;;;;;;5050425;28;20078;-71
2023/08/19 05:28:26;;;;;;;17.35;14.57;;;;;;;;;;5049846;28;20029;-71
2023/08/19 05:30:52;;;;;;;18.92;14.35;;;;;;;;;;5051744;28;20163;-71
2023/08/19 05:33:18;;;;;;;20.88;15.07;;;;;;;;;;5045377;28;20060;-71
2023/08/19 05:35:44;;;;;;;20.17;15.05;;;;;;;;;;5060646;28;20048;-71
2023/08/19 05:38:10;;;;;;;17.77;14.13;;;;;;;;;;5031107;28;20468;-71
2023/08/19 05:40:36;;;;;;;18.15;15.50;;;;;;;;;;5041639;28;20036;-71
2023/08/19 05:43:02;;;;;;;18.27;15.05;;;;;;;;;;5035028;28;20040;-72
2023/08/19 05:45:28;;;;;;;17.50;13.90;;;;;;;;;;5048769;28;20035;-72
2023/08/19 05:47:54;;;;;;;18.92;13.65;;;;;;;;;;5051623;28;20123;-72
2023/08/19 05:50:21;;;;;;;17.17;13.52;;;;;;;;;;5048119;28;20386;-71
2023/08/19 05:52:47;;;;;;;16.92;13.52;;;;;;;;;;5049301;28;20491;-71
2023/08/19 05:55:13;;;;;;;16.10;13.30;;;;;;;;;;5057042;28;20489;-72
2023/08/19 05:57:39;;;;;;;15.30;13.45;;;;;;;;;;5053989;28;20233;-72
2023/08/19 06:00:06;;;;;;;14.55;11.98;;;;;;;;;;5050184;28;20489;-73
2023/08/19 06:02:32;;;;;;;17.75;13.45;;;;;;;;;;5047648;28;20189;-72
2023/08/19 06:04:59;;;;;;;16.05;12.77;;;;;;;;;;5045096;28;20603;-72
2023/08/19 06:07:26;;;;;;;18.48;12.15;;;;;;;;;;5049915;28;20044;-72
2023/08/19 06:09:52;;;;;;;17.65;13.35;;;;;;;;;;5050952;28;20078;-72
2023/08/19 06:12:18;;;;;;;14.48;12.65;;;;;;;;;;5050625;28;20372;-71
2023/08/19 06:14:44;;;;;;;15.95;12.52;;;;;;;;;;5049515;28;20048;-71
2023/08/19 06:17:10;;;;;;;19.65;12.68;;;;;;;;;;5047266;28;20090;-72
2023/08/19 06:19:36;;;;;;;17.73;12.15;;;;;;;;;;5044762;28;20111;-72
2023/08/19 06:22:02;;;;;;;13.80;12.40;;;;;;;;;;5049617;28;20033;-72
2023/08/19 06:24:28;;;;;;;15.30;12.80;;;;;;;;;;5049922;28;20048;-72
2023/08/19 06:26:54;;;;;;;17.85;12.10;;;;;;;;;;5050747;28;20041;-72
2023/08/19 06:29:20;;;;;;;14.55;11.77;;;;;;;;;;5059566;28;20379;-71
2023/08/19 06:31:47;;;;;;;14.88;11.65;;;;;;;;;;5050261;28;20490;-72
2023/08/19 06:34:13;;;;;;;12.50;10.43;;;;;;;;;;5042265;28;20091;-72
2023/08/19 06:36:41;;;;;;;14.40;12.00;;;;;;;;;;5050574;28;20040;-72
2023/08/19 06:39:08;;;;;;;15.60;11.25;;;;;;;;;;5047431;28;20029;-71
2023/08/19 06:41:35;;;;;;;16.02;11.23;;;;;;;;;;5048230;28;20061;-72
2023/08/19 06:44:03;;;;;;;13.10;10.52;;;;;;;;;;5049965;28;20497;-72
2023/08/19 06:46:30;;;;;;;15.57;10.30;;;;;;;;;;5050026;28;20178;-71
2023/08/19 06:48:56;;;;;;;13.68;11.52;;;;;;;;;;5046341;28;20132;-72
2023/08/19 06:51:22;;;;;;;16.83;10.88;;;;;;;;;;5048912;28;20025;-72
2023/08/19 06:53:48;;;;;;;16.35;10.65;;;;;;;;;;5049596;28;20494;-72
2023/08/19 06:56:32;;;;;;;15.60;10.65;;;;;;;;;;5047349;28;20025;-72
2023/08/19 06:59:03;;;;;;;11.32;9.80;;;;;;;;;;5048293;28;20047;-72
2023/08/19 07:01:30;;;;;;;13.70;10.43;;;;;;;;;;5048870;28;20029;-72
2023/08/19 07:03:57;;;;;;;16.10;9.60;;;;;;;;;;5046837;28;20120;-72
2023/08/19 07:06:23;;;;;;;10.70;9.48;;;;;;;;;;5048806;28;20048;-72
2023/08/19 07:08:50;;;;;;;16.67;9.13;;;;;;;;;;5041883;28;20032;-74
2023/08/19 07:11:16;;;;;;;16.42;10.38;;;;;;;;;;5036187;28;20383;-77
2023/08/19 07:13:43;;;;;;;13.30;8.63;;;;;;;;;;5040729;28;20102;-79
2023/08/19 07:16:10;;;;;;;13.45;8.75;;;;;;;;;;5040162;28;20033;-76
2023/08/19 07:18:40;;;;;;;16.17;8.82;;;;;;;;;;5036942;28;20060;-76
2023/08/19 07:21:11;;;;;;;37.80;29.60;;;;;;;;;;5033773;28;20035;-76
2023/08/19 07:23:39;;;;;;;16.48;10.65;;;;;;;;;;5037101;28;20029;-76
2023/08/19 07:26:05;;;;;;;15.77;12.02;;;;;;;;;;5048865;28;20032;-77
2023/08/19 07:28:32;;;;;;;11.13;8.73;;;;;;;;;;5048632;28;20058;-76
2023/08/19 07:30:59;;;;;;;10.98;8.25;;;;;;;;;;5033621;28;20048;-76
2023/08/19 07:33:25;;;;;;;12.10;8.82;;;;;;;;;;5033091;28;20052;-75
2023/08/19 07:35:51;;;;;;;15.05;8.43;;;;;;;;;;5033251;28;20113;-76
2023/08/19 07:38:17;;;;;;;9.70;8.07;;;;;;;;;;5036582;28;20116;-75
2023/08/19 07:40:43;;;;;;;12.82;7.78;;;;;;;;;;5033285;28;20060;-75
2023/08/19 07:43:09;;;;;;;10.75;8.13;;;;;;;;;;5039510;28;20037;-74
2023/08/19 07:45:35;;;;;;;14.60;8.15;;;;;;;;;;5040386;28;20036;-74
2023/08/19 07:48:01;;;;;;;12.25;7.90;;;;;;;;;;5041717;28;20044;-73
2023/08/19 07:50:27;;;;;;;13.15;8.50;;;;;;;;;;5039322;28;20041;-73
2023/08/19 07:52:53;;;;;;;10.18;7.18;;;;;;;;;;5038287;28;20036;-73
2023/08/19 07:55:19;;;;;;;67.70;53.13;;;;;;;;;;5035053;28;20049;-77
2023/08/19 07:57:45;;;;;;;22.77;16.55;;;;;;;;;;5039774;28;20035;-78
2023/08/19 08:00:11;;;;;;;13.02;7.95;;;;;;;;;;5040947;28;20187;-78
2023/08/19 08:02:37;;;;;;;13.50;9.15;;;;;;;;;;5040327;28;20036;-74
2023/08/19 08:05:03;;;;;;;11.50;6.68;;;;;;;;;;5038102;28;20029;-74
2023/08/19 08:07:30;;;;;;;8.50;6.75;;;;;;;;;;5037653;28;20037;-74
2023/08/19 08:09:56;;;;;;;15.38;7.63;;;;;;;;;;5041327;28;20049;-73
2023/08/19 08:12:22;;;;;;;12.02;6.80;;;;;;;;;;5038773;28;20474;-73
2023/08/19 08:14:48;;;;;;;9.23;6.68;;;;;;;;;;5035386;28;20112;-72
2023/08/19 08:17:14;;;;;;;11.27;6.50;;;;;;;;;;5037406;28;20111;-73
2023/08/19 08:19:40;;;;;;;10.82;6.65;;;;;;;;;;5037932;28;20072;-73
2023/08/19 08:22:06;;;;;;;8.93;6.25;;;;;;;;;;5039063;28;20033;-73
2023/08/19 08:24:32;;;;;;;13.43;6.50;;;;;;;;;;5037818;28;20049;-72
2023/08/19 08:26:58;;;;;;;7.22;6.35;;;;;;;;;;5040507;28;20037;-73
2023/08/19 08:29:24;;;;;;;6.57;5.47;;;;;;;;;;5043657;28;20036;-73
2023/08/19 08:31:50;;;;;;;9.73;6.28;;;;;;;;;;5047554;28;20037;-75
2023/08/19 08:34:16;;;;;;;10.70;6.60;;;;;;;;;;5037385;28;20709;-73
2023/08/19 08:36:42;;;;;;;8.38;5.35;;;;;;;;;;5044325;28;20490;-73
2023/08/19 08:39:08;;;;;;;9.88;6.72;;;;;;;;;;5050931;28;20106;-73
2023/08/19 08:41:38;;;;;;;8.10;5.40;;;;;;;;;;5036068;28;20061;-72
2023/08/19 08:44:05;;;;;;;8.55;5.95;;;;;;;;;;5041247;28;20033;-72
2023/08/19 08:46:31;;;;;;;10.18;6.03;;;;;;;;;;5049908;28;20534;-81
2023/08/19 08:48:58;;;;;;;12.60;6.00;;;;;;;;;;5045140;28;20033;-80
2023/08/19 08:51:25;;;;;;;24.67;18.23;;;;;;;;;;5044778;28;20025;-82
2023/08/19 08:53:52;;;;;;;10.18;5.93;;;;;;;;;;5047856;28;20536;-82
2023/08/19 08:56:19;;;;;;;11.55;5.60;;;;;;;;;;5040657;28;20033;-82
2023/08/19 08:58:45;;;;;;;9.93;5.72;;;;;;;;;;5048427;28;20060;-81
2023/08/19 09:01:11;;;;;;;10.05;6.22;;;;;;;;;;5040843;28;20064;-76
2023/08/19 09:03:39;;;;;;;12.27;5.70;;;;;;;;;;5044581;28;20033;-76
2023/08/19 09:06:10;;;;;;;7.22;5.78;;;;;;;;;;5055937;28;21784;-74
2023/08/19 09:08:43;;;;;;;20.45;8.25;;;;;;;;;;5036923;28;20054;-76
2023/08/19 09:11:11;;;;;;;8.48;5.85;;;;;;;;;;5042252;28;20236;-78
2023/08/19 09:13:38;;;;;;;6.97;5.95;;;;;;;;;;5037483;28;20123;-77
2023/08/19 09:16:10;;;;;;;130.30;94.82;;;;;;;;;;5036285;28;20037;-82
2023/08/19 09:37:49;;;;;;;7.82;6.15;;;;;;;;;;5018136;28;20088;-82
2023/08/19 09:40:21;;;;;;;10.32;6.68;;;;;;;;;;5035301;28;20071;-82
2023/08/19 09:42:48;;;;;;;10.70;6.30;;;;;;;;;;5037883;28;20155;-83
2023/08/19 09:45:18;;;;;;;9.00;6.43;;;;;;;;;;5041869;28;20033;-82
2023/08/19 09:47:48;;;;;;;9.75;6.60;;;;;;;;;;5037551;28;20025;-79
2023/08/19 09:50:15;;;;;;;12.00;6.35;;;;;;;;;;5038317;28;20020;-80
2023/08/19 09:52:41;;;;;;;9.68;6.30;;;;;;;;;;5037805;28;20036;-80
2023/08/19 09:55:07;;;;;;;9.93;6.47;;;;;;;;;;5039747;28;20132;-80
2023/08/19 09:57:34;;;;;;;7.70;6.45;;;;;;;;;;5037992;28;20033;-80
2023/08/19 10:00:01;;;;;;;8.93;6.65;;;;;;;;;;5036313;28;20128;-76
2023/08/19 10:02:30;;;;;;;8.57;7.25;;;;;;;;;;5038153;28;20504;-75
2023/08/19 10:04:56;;;;;;;15.35;8.07;;;;;;;;;;5038420;28;20024;-76
2023/08/19 10:07:27;;;;;;;9.43;7.30;;;;;;;;;;5038874;28;20095;-77
2023/08/19 10:09:54;;;;;;;13.88;8.93;;;;;;;;;;5034196;28;20120;-77
2023/08/19 10:12:22;;;;;;;11.93;6.97;;;;;;;;;;5037903;28;20021;-77
2023/08/19 10:14:49;;;;;;;13.43;6.65;;;;;;;;;;5021758;28;20515;-76
2023/08/19 10:17:16;;;;;;;60.83;46.10;;;;;;;;;;5040024;28;20033;-74
2023/08/19 10:19:45;;;;;;;27.83;18.75;;;;;;;;;;5040220;28;20034;-75
2023/08/19 10:22:12;;;;;;;14.50;9.73;;;;;;;;;;5040760;28;20050;-76
2023/08/19 10:24:39;;;;;;;15.45;7.68;;;;;;;;;;5040656;28;20471;-76
2023/08/19 10:27:18;;;;;;;14.25;8.05;;;;;;;;;;5037938;28;20049;-77
2023/08/19 10:29:50;;;;;;;10.65;7.57;;;;;;;;;;5035558;28;20052;-76
2023/08/19 10:32:29;;;;;;;11.98;8.45;;;;;;;;;;5038943;28;20446;-76
2023/08/19 10:35:15;;;;;;;14.05;7.82;;;;;;;;;;5041099;28;20528;-76
2023/08/19 10:37:48;;;;;;;11.35;6.65;;;;;;;;;;5033797;28;20617;-78
2023/08/19 10:40:18;;;;;;;13.18;8.25;;;;;;;;;;5036161;28;20048;-77
2023/08/19 10:42:53;;;;;;;10.48;8.43;;;;;;;;;;5033269;28;20285;-77
2023/08/19 10:45:19;;;;;;;15.73;8.77;;;;;;;;;;5041003;28;20208;-77
2023/08/19 10:47:45;;;;;;;13.35;8.68;;;;;;;;;;5040855;28;20079;-76
2023/08/19 10:50:12;;;;;;;16.98;8.57;;;;;;;;;;5036853;28;20338;-79
2023/08/19 10:52:58;;;;;;;12.32;8.40;;;;;;;;;;5036569;28;20068;-77
2023/08/19 10:55:24;;;;;;;16.48;8.13;;;;;;;;;;5037714;28;20021;-77
2023/08/19 10:57:50;;;;;;;13.93;8.93;;;;;;;;;;5039910;28;20036;-80
2023/08/19 11:00:21;;;;;;;12.02;9.27;;;;;;;;;;5035771;28;20041;-77
2023/08/19 11:02:47;;;;;;;17.33;10.95;;;;;;;;;;5040153;28;20104;-76
2023/08/19 11:05:13;;;;;;;36.33;22.48;;;;;;;;;;5040554;28;20124;-80
2023/08/19 11:07:41;;;;;;;14.88;12.95;;;;;;;;;;5040414;28;20151;-83
2023/08/19 11:10:07;;;;;;;22.48;14.90;;;;;;;;;;5040992;28;20449;-83
2023/08/19 11:12:33;;;;;;;21.50;15.57;;;;;;;;;;5040634;28;20060;-75
2023/08/19 11:15:00;;;;;;;21.88;16.42;;;;;;;;;;5031685;28;20045;-74
2023/08/19 11:17:30;;;;;;;23.02;15.55;;;;;;;;;;5030718;28;20120;-75
2023/08/19 11:19:58;;;;;;;22.45;16.15;;;;;;;;;;5034130;28;20025;-74
2023/08/19 11:22:24;;;;;;;17.15;14.15;;;;;;;;;;5036542;28;20033;-74
2023/08/19 11:24:51;;;;;;;23.23;17.88;;;;;;;;;;5038942;28;20041;-74
2023/08/19 11:27:17;;;;;;;24.15;20.08;;;;;;;;;;5035076;28;20079;-75
2023/08/19 11:29:46;;;;;;;29.63;23.25;;;;;;;;;;5037949;28;20064;-74
2023/08/19 11:32:18;;;;;;;34.10;25.48;;;;;;;;;;5039679;28;20557;-75
2023/08/19 11:34:44;;;;;;;35.13;25.38;;;;;;;;;;5040052;28;20033;-75
2023/08/19 11:39:46;;;;;;;36.58;25.20;;;;;;;;;;5043200;23;20057;-72
2023/08/19 11:42:12;;;;;;;33.35;25.10;;;;;;;;;;5040425;28;20121;-73
2023/08/19 11:44:38;;;;;;;25.92;19.83;;;;;;;;;;5041335;28;20079;-74
2023/08/19 11:47:04;;;;;;;20.98;16.85;;;;;;;;;;5038541;28;20072;-75
2023/08/19 11:49:31;;;;;;;22.60;17.42;;;;;;;;;;5040066;28;20039;-73
2023/08/19 11:51:58;;;;;;;22.15;15.82;;;;;;;;;;5043948;28;20068;-73
2023/08/19 11:54:24;;;;;;;21.65;15.43;;;;;;;;;;5043024;28;20032;-74
2023/08/19 11:56:54;;;;;;;20.27;14.10;;;;;;;;;;5043739;28;20057;-75
2023/08/19 11:59:28;;;;;;;16.33;11.60;;;;;;;;;;5043406;28;20709;-73
2023/08/19 12:01:54;;;;;;;13.48;9.55;;;;;;;;;;5044046;28;20104;-77
2023/08/19 12:04:20;;;;;;;6.18;4.88;;;;;;;;;;5043577;28;20075;-76
2023/08/19 12:06:47;;;;;;;7.88;4.95;;;;;;;;;;5036293;28;20063;-75
2023/08/19 12:09:14;;;;;;;8.75;5.38;;;;;;;;;;5040673;28;20041;-74
2023/08/19 12:11:40;;;;;;;8.60;5.60;;;;;;;;;;5057356;28;20056;-75
2023/08/19 12:14:06;;;;;;;12.20;5.93;;;;;;;;;;5039652;28;20021;-75
2023/08/19 12:16:32;;;;;;;8.90;5.97;;;;;;;;;;5044264;28;20071;-74
2023/08/19 12:18:59;;;;;;;7.85;5.82;;;;;;;;;;5041733;28;20178;-75
2023/08/19 12:21:25;;;;;;;11.07;7.75;;;;;;;;;;5044479;28;20069;-74
2023/08/19 12:23:51;;;;;;;11.00;7.50;;;;;;;;;;5038306;28;20167;-76
2023/08/19 12:26:17;;;;;;;7.95;5.25;;;;;;;;;;5045156;28;20434;-75
2023/08/19 12:28:43;;;;;;;11.45;4.88;;;;;;;;;;5039094;28;20048;-76
2023/08/19 12:31:09;;;;;;;8.50;4.07;;;;;;;;;;5042727;28;20043;-75
2023/08/19 12:33:36;;;;;;;6.63;3.92;;;;;;;;;;5040326;28;20032;-75
2023/08/19 12:36:02;;;;;;;8.38;3.65;;;;;;;;;;5042291;28;20116;-77
2023/08/19 12:38:28;;;;;;;4.72;2.15;;;;;;;;;;5042499;28;20057;-75
2023/08/19 12:40:54;;;;;;;4.90;2.63;;;;;;;;;;5043041;28;20049;-75
2023/08/19 12:43:20;;;;;;;4.38;2.30;;;;;;;;;;5038345;28;20037;-75
2023/08/19 12:45:46;;;;;;;4.40;2.20;;;;;;;;;;5040704;28;20036;-74
2023/08/19 12:48:12;;;;;;;8.25;2.78;;;;;;;;;;5041417;28;20623;-74
2023/08/19 12:50:38;;;;;;;4.32;2.30;;;;;;;;;;5046534;28;20135;-76
2023/08/19 12:53:06;;;;;;;5.45;2.45;;;;;;;;;;5043369;28;20534;-75
2023/08/19 12:55:32;;;;;;;7.13;2.13;;;;;;;;;;5052488;28;20032;-76
2023/08/19 12:57:58;;;;;;;6.32;2.65;;;;;;;;;;5046104;28;20029;-76
2023/08/19 13:00:26;;;;;;;7.22;2.50;;;;;;;;;;5046645;28;20052;-74
2023/08/19 13:02:52;;;;;;;6.30;3.10;;;;;;;;;;5043167;28;20033;-75
2023/08/19 13:05:18;;;;;;;13.90;8.55;;;;;;;;;;5047223;28;20041;-75
2023/08/19 13:07:44;;;;;;;13.07;3.03;;;;;;;;;;5037177;28;20136;-74
2023/08/19 13:10:19;;;;;;;4.15;2.50;;;;;;;;;;5048536;28;20108;-75
2023/08/19 13:12:47;;;;;;;7.57;2.92;;;;;;;;;;5050878;28;20036;-75
2023/08/19 13:15:15;;;;;;;7.25;2.85;;;;;;;;;;5046304;28;20128;-74
2023/08/19 13:17:41;;;;;;;6.72;3.35;;;;;;;;;;5047088;28;20090;-75
2023/08/19 13:20:07;;;;;;;6.82;2.90;;;;;;;;;;5051689;28;20021;-75
2023/08/19 13:22:34;;;;;;;7.20;3.67;;;;;;;;;;5047966;28;20577;-73
2023/08/19 13:25:00;;;;;;;11.10;3.58;;;;;;;;;;5056143;28;20086;-75
2023/08/19 13:27:26;;;;;;;6.65;3.25;;;;;;;;;;5051421;28;20037;-77
2023/08/19 13:29:52;;;;;;;10.98;3.40;;;;;;;;;;5050859;28;20033;-75
2023/08/19 13:32:18;;;;;;;8.77;3.42;;;;;;;;;;5044999;28;20056;-73
2023/08/19 13:34:45;;;;;;;5.63;3.17;;;;;;;;;;5050973;28;20120;-75
2023/08/19 13:37:11;;;;;;;9.23;3.40;;;;;;;;;;5045540;28;20664;-75
2023/08/19 13:39:38;;;;;;;9.40;3.95;;;;;;;;;;5065643;28;20053;-74
2023/08/19 13:42:04;;;;;;;9.68;3.67;;;;;;;;;;5047845;28;20071;-78
2023/08/19 13:44:30;;;;;;;7.72;3.83;;;;;;;;;;5041853;28;20043;-78
2023/08/19 13:46:57;;;;;;;7.43;4.28;;;;;;;;;;5041935;28;20025;-74
2023/08/19 13:49:23;;;;;;;10.32;3.92;;;;;;;;;;5034043;28;20060;-77
2023/08/19 13:51:50;;;;;;;8.10;4.32;;;;;;;;;;5045148;28;20037;-71
2023/08/19 13:54:17;;;;;;;9.25;4.82;;;;;;;;;;5045883;28;20090;-78
2023/08/19 13:56:44;;;;;;;7.47;4.93;;;;;;;;;;5059679;28;20036;-77
2023/08/19 13:59:10;;;;;;;12.48;4.70;;;;;;;;;;5040319;28;20018;-76
2023/08/19 14:01:36;;;;;;;8.98;5.13;;;;;;;;;;5042665;28;20029;-74
2023/08/19 14:04:02;;;;;;;8.43;4.85;;;;;;;;;;5051280;28;20021;-75
2023/08/19 14:06:28;;;;;;;9.90;4.82;;;;;;;;;;5048839;28;20118;-78
2023/08/19 14:08:55;;;;;;;11.45;4.45;;;;;;;;;;5042692;28;20159;-74
2023/08/19 14:11:21;;;;;;;8.40;4.93;;;;;;;;;;5049744;28;20572;-75
2023/08/19 14:13:47;;;;;;;8.43;5.25;;;;;;;;;;5044417;28;20123;-72
2023/08/19 14:16:13;;;;;;;10.20;5.53;;;;;;;;;;5041882;28;20096;-75
2023/08/19 14:18:39;;;;;;;9.35;5.57;;;;;;;;;;5060401;28;20063;-75
2023/08/19 14:21:05;;;;;;;7.25;5.40;;;;;;;;;;5042465;28;20033;-73
2023/08/19 14:23:31;;;;;;;14.85;7.35;;;;;;;;;;5050283;28;20036;-74
2023/08/19 14:25:58;;;;;;;13.90;7.47;;;;;;;;;;5047206;28;20029;-75
2023/08/19 14:28:23;;;;;;;14.77;7.28;;;;;;;;;;5048055;28;20040;-76
2023/08/19 14:30:49;;;;;;;11.73;6.65;;;;;;;;;;5044757;28;20121;-77
2023/08/19 14:33:15;;;;;;;15.02;7.15;;;;;;;;;;5060275;28;20040;-79
2023/08/19 14:35:43;;;;;;;11.57;7.60;;;;;;;;;;5047789;28;20037;-76
2023/08/19 14:38:09;;;;;;;14.50;7.95;;;;;;;;;;5045726;28;20118;-78
2023/08/19 14:40:35;;;;;;;12.55;8.30;;;;;;;;;;5048690;28;20025;-75
2023/08/19 14:43:02;;;;;;;15.68;8.52;;;;;;;;;;5049342;28;20033;-77
2023/08/19 14:45:28;;;;;;;15.68;8.73;;;;;;;;;;5048813;28;20040;-74